sensor_id;sensor_type;location;lat;lon;timestamp;P1;durP1;ratioP1;P2;durP2;ratioP2
76035;SDS011;64732;56.314;44.068;2022-12-07T00:02:11;11.73;;;4.05;;
76035;SDS011;64732;56.314;44.068;2022-12-07T00:04:32;13.68;;;5.13;;
76035;SDS011;64732;56.314;44.068;2022-12-07T00:06:55;12.00;;;4.70;;
76035;SDS011;64732;56.314;44.068;2022-12-07T00:09:17;9.98;;;4.45;;
76035;SDS011;64732;56.314;44.068;2022-12-07T00:11:38;10.25;;;3.72;;
76035;SDS011;64732;56.314;44.068;2022-12-07T00:14:00;14.75;;;5.32;;
76035;SDS011;64732;56.314;44.068;2022-12-07T00:16:23;9.52;;;4.93;;
76035;SDS011;64732;56.314;44.068;2022-12-07T00:18:45;9.90;;;4.50;;
76035;SDS011;64732;56.314;44.068;2022-12-07T00:21:07;9.50;;;4.55;;
76035;SDS011;64732;56.314;44.068;2022-12-07T00:23:32;9.73;;;4.80;;
76035;SDS011;64732;56.314;44.068;2022-12-07T00:25:53;9.18;;;4.57;;
76035;SDS011;64732;56.314;44.068;2022-12-07T00:28:14;8.73;;;4.53;;
76035;SDS011;64732;56.314;44.068;2022-12-07T00:30:35;11.13;;;4.70;;
76035;SDS011;64732;56.314;44.068;2022-12-07T00:32:56;12.65;;;5.43;;
76035;SDS011;64732;56.314;44.068;2022-12-07T00:35:17;11.40;;;4.40;;
76035;SDS011;64732;56.314;44.068;2022-12-07T00:37:38;8.93;;;4.35;;
76035;SDS011;64732;56.314;44.068;2022-12-07T00:40:01;11.32;;;4.65;;
76035;SDS011;64732;56.314;44.068;2022-12-07T00:42:23;10.05;;;5.43;;
76035;SDS011;64732;56.314;44.068;2022-12-07T00:44:44;9.05;;;4.75;;
76035;SDS011;64732;56.314;44.068;2022-12-07T00:47:05;11.65;;;5.10;;
76035;SDS011;64732;56.314;44.068;2022-12-07T00:49:26;11.05;;;4.78;;
76035;SDS011;64732;56.314;44.068;2022-12-07T00:51:47;12.63;;;5.00;;
76035;SDS011;64732;56.314;44.068;2022-12-07T00:54:08;12.10;;;4.30;;
76035;SDS011;64732;56.314;44.068;2022-12-07T00:56:32;10.60;;;4.57;;
76035;SDS011;64732;56.314;44.068;2022-12-07T00:58:54;6.10;;;2.83;;
76035;SDS011;64732;56.314;44.068;2022-12-07T01:01:16;14.57;;;6.15;;
76035;SDS011;64732;56.314;44.068;2022-12-07T01:03:37;11.95;;;4.80;;
76035;SDS011;64732;56.314;44.068;2022-12-07T01:05:58;8.95;;;4.75;;
76035;SDS011;64732;56.314;44.068;2022-12-07T01:08:19;10.18;;;4.78;;
76035;SDS011;64732;56.314;44.068;2022-12-07T01:10:41;11.93;;;6.03;;
76035;SDS011;64732;56.314;44.068;2022-12-07T01:13:05;7.13;;;3.70;;
76035;SDS011;64732;56.314;44.068;2022-12-07T01:15:25;12.68;;;5.03;;
76035;SDS011;64732;56.314;44.068;2022-12-07T01:17:49;10.77;;;5.10;;
76035;SDS011;64732;56.314;44.068;2022-12-07T01:20:11;10.60;;;5.47;;
76035;SDS011;64732;56.314;44.068;2022-12-07T01:22:35;11.77;;;5.07;;
76035;SDS011;64732;56.314;44.068;2022-12-07T01:25:00;10.82;;;5.07;;
76035;SDS011;64732;56.314;44.068;2022-12-07T01:27:20;11.77;;;4.95;;
76035;SDS011;64732;56.314;44.068;2022-12-07T01:29:44;8.63;;;4.93;;
76035;SDS011;64732;56.314;44.068;2022-12-07T01:32:05;11.52;;;5.13;;
76035;SDS011;64732;56.314;44.068;2022-12-07T01:34:26;12.80;;;5.65;;
76035;SDS011;64732;56.314;44.068;2022-12-07T01:36:47;11.95;;;6.05;;
76035;SDS011;64732;56.314;44.068;2022-12-07T01:39:08;11.13;;;5.47;;
76035;SDS011;64732;56.314;44.068;2022-12-07T01:41:30;9.43;;;4.53;;
76035;SDS011;64732;56.314;44.068;2022-12-07T01:44:09;7.75;;;4.28;;
76035;SDS011;64732;56.314;44.068;2022-12-07T01:46:35;9.40;;;4.43;;
76035;SDS011;64732;56.314;44.068;2022-12-07T01:48:56;11.90;;;5.75;;
76035;SDS011;64732;56.314;44.068;2022-12-07T01:51:16;9.65;;;4.93;;
76035;SDS011;64732;56.314;44.068;2022-12-07T01:53:38;7.95;;;3.92;;
76035;SDS011;64732;56.314;44.068;2022-12-07T01:56:02;7.72;;;3.40;;
76035;SDS011;64732;56.314;44.068;2022-12-07T01:58:24;8.85;;;4.68;;
76035;SDS011;64732;56.314;44.068;2022-12-07T02:00:45;11.07;;;4.70;;
76035;SDS011;64732;56.314;44.068;2022-12-07T02:03:11;10.73;;;4.57;;
76035;SDS011;64732;56.314;44.068;2022-12-07T02:05:35;13.32;;;5.30;;
76035;SDS011;64732;56.314;44.068;2022-12-07T02:07:57;13.93;;;5.53;;
76035;SDS011;64732;56.314;44.068;2022-12-07T02:10:20;10.02;;;4.43;;
76035;SDS011;64732;56.314;44.068;2022-12-07T02:12:42;10.43;;;5.10;;
76035;SDS011;64732;56.314;44.068;2022-12-07T02:15:25;10.45;;;4.63;;
76035;SDS011;64732;56.314;44.068;2022-12-07T02:17:50;9.25;;;3.55;;
76035;SDS011;64732;56.314;44.068;2022-12-07T02:20:24;13.32;;;4.72;;
76035;SDS011;64732;56.314;44.068;2022-12-07T02:22:55;8.98;;;4.63;;
76035;SDS011;64732;56.314;44.068;2022-12-07T02:25:27;8.43;;;4.13;;
76035;SDS011;64732;56.314;44.068;2022-12-07T02:28:00;10.55;;;4.50;;
76035;SDS011;64732;56.314;44.068;2022-12-07T02:30:27;12.13;;;5.63;;
76035;SDS011;64732;56.314;44.068;2022-12-07T02:32:53;11.73;;;5.25;;
76035;SDS011;64732;56.314;44.068;2022-12-07T02:35:17;9.25;;;3.70;;
76035;SDS011;64732;56.314;44.068;2022-12-07T02:37:41;12.85;;;5.40;;
76035;SDS011;64732;56.314;44.068;2022-12-07T02:40:05;10.93;;;5.13;;
76035;SDS011;64732;56.314;44.068;2022-12-07T02:42:30;9.93;;;4.70;;
76035;SDS011;64732;56.314;44.068;2022-12-07T02:44:52;13.02;;;4.40;;
76035;SDS011;64732;56.314;44.068;2022-12-07T02:47:16;11.65;;;5.97;;
76035;SDS011;64732;56.314;44.068;2022-12-07T02:49:38;12.98;;;5.53;;
76035;SDS011;64732;56.314;44.068;2022-12-07T02:51:59;10.40;;;3.58;;
76035;SDS011;64732;56.314;44.068;2022-12-07T02:54:21;16.35;;;5.50;;
76035;SDS011;64732;56.314;44.068;2022-12-07T02:56:43;11.75;;;5.05;;
76035;SDS011;64732;56.314;44.068;2022-12-07T02:59:10;9.18;;;4.25;;
76035;SDS011;64732;56.314;44.068;2022-12-07T03:01:38;10.77;;;4.70;;
76035;SDS011;64732;56.314;44.068;2022-12-07T03:04:06;10.73;;;4.35;;
76035;SDS011;64732;56.314;44.068;2022-12-07T03:06:34;8.80;;;4.00;;
76035;SDS011;64732;56.314;44.068;2022-12-07T03:09:01;9.45;;;3.88;;
76035;SDS011;64732;56.314;44.068;2022-12-07T03:11:25;16.15;;;6.07;;
76035;SDS011;64732;56.314;44.068;2022-12-07T03:13:50;9.82;;;4.90;;
76035;SDS011;64732;56.314;44.068;2022-12-07T03:16:17;14.40;;;5.97;;
76035;SDS011;64732;56.314;44.068;2022-12-07T03:18:40;13.88;;;5.05;;
76035;SDS011;64732;56.314;44.068;2022-12-07T03:21:08;13.43;;;5.38;;
76035;SDS011;64732;56.314;44.068;2022-12-07T03:23:32;13.07;;;4.97;;
76035;SDS011;64732;56.314;44.068;2022-12-07T03:25:55;12.80;;;5.25;;
76035;SDS011;64732;56.314;44.068;2022-12-07T03:28:19;17.15;;;5.72;;
76035;SDS011;64732;56.314;44.068;2022-12-07T03:30:42;12.15;;;5.57;;
76035;SDS011;64732;56.314;44.068;2022-12-07T03:33:05;15.05;;;5.72;;
76035;SDS011;64732;56.314;44.068;2022-12-07T03:35:28;13.75;;;5.55;;
76035;SDS011;64732;56.314;44.068;2022-12-07T03:37:56;15.73;;;6.32;;
76035;SDS011;64732;56.314;44.068;2022-12-07T03:40:20;14.25;;;6.53;;
76035;SDS011;64732;56.314;44.068;2022-12-07T03:42:44;13.05;;;6.43;;
76035;SDS011;64732;56.314;44.068;2022-12-07T03:45:05;11.70;;;5.60;;
76035;SDS011;64732;56.314;44.068;2022-12-07T03:47:28;13.85;;;6.28;;
76035;SDS011;64732;56.314;44.068;2022-12-07T03:49:52;12.02;;;5.78;;
76035;SDS011;64732;56.314;44.068;2022-12-07T03:52:17;13.00;;;6.13;;
76035;SDS011;64732;56.314;44.068;2022-12-07T03:54:48;14.48;;;5.55;;
76035;SDS011;64732;56.314;44.068;2022-12-07T03:57:12;15.38;;;5.80;;
76035;SDS011;64732;56.314;44.068;2022-12-07T03:59:34;15.40;;;6.47;;
76035;SDS011;64732;56.314;44.068;2022-12-07T04:01:56;13.75;;;5.55;;
76035;SDS011;64732;56.314;44.068;2022-12-07T04:04:18;17.77;;;6.43;;
76035;SDS011;64732;56.314;44.068;2022-12-07T04:06:39;14.52;;;6.63;;
76035;SDS011;64732;56.314;44.068;2022-12-07T04:09:00;12.65;;;5.75;;
76035;SDS011;64732;56.314;44.068;2022-12-07T04:11:23;11.32;;;5.57;;
76035;SDS011;64732;56.314;44.068;2022-12-07T04:13:44;12.32;;;5.25;;
76035;SDS011;64732;56.314;44.068;2022-12-07T04:16:05;16.60;;;7.13;;
76035;SDS011;64732;56.314;44.068;2022-12-07T04:18:26;18.52;;;6.65;;
76035;SDS011;64732;56.314;44.068;2022-12-07T04:20:47;14.38;;;6.72;;
76035;SDS011;64732;56.314;44.068;2022-12-07T04:23:08;13.75;;;6.57;;
76035;SDS011;64732;56.314;44.068;2022-12-07T04:25:29;14.82;;;5.95;;
76035;SDS011;64732;56.314;44.068;2022-12-07T04:27:53;16.38;;;6.30;;
76035;SDS011;64732;56.314;44.068;2022-12-07T04:30:14;10.80;;;5.60;;
76035;SDS011;64732;56.314;44.068;2022-12-07T04:32:35;13.85;;;6.32;;
76035;SDS011;64732;56.314;44.068;2022-12-07T04:34:56;15.35;;;6.95;;
76035;SDS011;64732;56.314;44.068;2022-12-07T04:37:17;14.77;;;6.13;;
76035;SDS011;64732;56.314;44.068;2022-12-07T04:39:38;13.55;;;6.65;;
76035;SDS011;64732;56.314;44.068;2022-12-07T04:41:59;17.30;;;6.43;;
76035;SDS011;64732;56.314;44.068;2022-12-07T04:44:24;12.38;;;6.25;;
76035;SDS011;64732;56.314;44.068;2022-12-07T04:46:45;17.33;;;7.30;;
76035;SDS011;64732;56.314;44.068;2022-12-07T04:49:06;16.13;;;6.10;;
76035;SDS011;64732;56.314;44.068;2022-12-07T04:51:28;19.10;;;7.82;;
76035;SDS011;64732;56.314;44.068;2022-12-07T04:53:53;14.82;;;6.55;;
76035;SDS011;64732;56.314;44.068;2022-12-07T04:56:14;16.45;;;6.15;;
76035;SDS011;64732;56.314;44.068;2022-12-07T04:58:35;17.13;;;7.20;;
76035;SDS011;64732;56.314;44.068;2022-12-07T05:00:59;15.95;;;7.53;;
76035;SDS011;64732;56.314;44.068;2022-12-07T05:03:20;15.27;;;5.85;;
76035;SDS011;64732;56.314;44.068;2022-12-07T05:05:41;9.68;;;4.03;;
76035;SDS011;64732;56.314;44.068;2022-12-07T05:08:02;11.95;;;5.30;;
76035;SDS011;64732;56.314;44.068;2022-12-07T05:10:23;14.02;;;6.03;;
76035;SDS011;64732;56.314;44.068;2022-12-07T05:12:44;19.02;;;7.18;;
76035;SDS011;64732;56.314;44.068;2022-12-07T05:15:05;14.25;;;6.68;;
76035;SDS011;64732;56.314;44.068;2022-12-07T05:17:29;11.65;;;5.53;;
76035;SDS011;64732;56.314;44.068;2022-12-07T05:19:50;19.73;;;8.00;;
76035;SDS011;64732;56.314;44.068;2022-12-07T05:22:11;21.75;;;7.10;;
76035;SDS011;64732;56.314;44.068;2022-12-07T05:24:32;20.30;;;7.82;;
76035;SDS011;64732;56.314;44.068;2022-12-07T05:26:53;19.10;;;8.07;;
76035;SDS011;64732;56.314;44.068;2022-12-07T05:29:14;16.50;;;7.93;;
76035;SDS011;64732;56.314;44.068;2022-12-07T05:31:36;20.70;;;7.85;;
76035;SDS011;64732;56.314;44.068;2022-12-07T05:34:00;20.80;;;8.50;;
76035;SDS011;64732;56.314;44.068;2022-12-07T05:36:21;20.45;;;8.50;;
76035;SDS011;64732;56.314;44.068;2022-12-07T05:38:43;17.45;;;8.05;;
76035;SDS011;64732;56.314;44.068;2022-12-07T05:41:04;23.98;;;8.38;;
76035;SDS011;64732;56.314;44.068;2022-12-07T05:43:26;20.08;;;8.27;;
76035;SDS011;64732;56.314;44.068;2022-12-07T05:45:47;18.35;;;8.10;;
76035;SDS011;64732;56.314;44.068;2022-12-07T05:48:08;20.13;;;8.32;;
76035;SDS011;64732;56.314;44.068;2022-12-07T05:50:32;25.17;;;8.68;;
76035;SDS011;64732;56.314;44.068;2022-12-07T05:52:53;16.52;;;6.97;;
76035;SDS011;64732;56.314;44.068;2022-12-07T05:55:14;22.90;;;8.73;;
76035;SDS011;64732;56.314;44.068;2022-12-07T05:57:35;26.45;;;9.65;;
76035;SDS011;64732;56.314;44.068;2022-12-07T05:59:56;16.05;;;6.63;;
76035;SDS011;64732;56.314;44.068;2022-12-07T06:02:17;20.20;;;7.65;;
76035;SDS011;64732;56.314;44.068;2022-12-07T06:04:39;19.90;;;8.07;;
76035;SDS011;64732;56.314;44.068;2022-12-07T06:07:05;14.00;;;6.68;;
76035;SDS011;64732;56.314;44.068;2022-12-07T06:09:26;20.55;;;7.72;;
76035;SDS011;64732;56.314;44.068;2022-12-07T06:11:48;19.77;;;8.05;;
76035;SDS011;64732;56.314;44.068;2022-12-07T06:14:09;27.23;;;9.43;;
76035;SDS011;64732;56.314;44.068;2022-12-07T06:16:30;18.33;;;7.70;;
76035;SDS011;64732;56.314;44.068;2022-12-07T06:18:51;18.85;;;7.63;;
76035;SDS011;64732;56.314;44.068;2022-12-07T06:21:12;13.57;;;6.28;;
76035;SDS011;64732;56.314;44.068;2022-12-07T06:23:35;15.98;;;6.60;;
76035;SDS011;64732;56.314;44.068;2022-12-07T06:25:56;18.65;;;6.95;;
76035;SDS011;64732;56.314;44.068;2022-12-07T06:28:20;12.75;;;6.07;;
76035;SDS011;64732;56.314;44.068;2022-12-07T06:30:41;17.55;;;7.43;;
76035;SDS011;64732;56.314;44.068;2022-12-07T06:33:02;16.15;;;6.45;;
76035;SDS011;64732;56.314;44.068;2022-12-07T06:35:23;21.17;;;8.02;;
76035;SDS011;64732;56.314;44.068;2022-12-07T06:37:50;20.63;;;7.95;;
76035;SDS011;64732;56.314;44.068;2022-12-07T06:40:14;17.17;;;7.68;;
76035;SDS011;64732;56.314;44.068;2022-12-07T06:42:35;19.00;;;7.75;;
76035;SDS011;64732;56.314;44.068;2022-12-07T06:44:56;18.70;;;5.97;;
76035;SDS011;64732;56.314;44.068;2022-12-07T06:47:17;21.38;;;7.60;;
76035;SDS011;64732;56.314;44.068;2022-12-07T06:49:38;15.38;;;7.18;;
76035;SDS011;64732;56.314;44.068;2022-12-07T06:51:59;15.23;;;7.35;;
76035;SDS011;64732;56.314;44.068;2022-12-07T06:54:20;15.43;;;7.95;;
76035;SDS011;64732;56.314;44.068;2022-12-07T06:56:44;14.27;;;6.40;;
76035;SDS011;64732;56.314;44.068;2022-12-07T06:59:06;15.20;;;6.80;;
76035;SDS011;64732;56.314;44.068;2022-12-07T07:01:28;16.52;;;6.93;;
76035;SDS011;64732;56.314;44.068;2022-12-07T07:03:49;18.25;;;7.25;;
76035;SDS011;64732;56.314;44.068;2022-12-07T07:06:10;12.75;;;5.90;;
76035;SDS011;64732;56.314;44.068;2022-12-07T07:08:31;11.57;;;5.28;;
76035;SDS011;64732;56.314;44.068;2022-12-07T07:10:52;22.88;;;7.78;;
76035;SDS011;64732;56.314;44.068;2022-12-07T07:13:16;13.68;;;5.57;;
76035;SDS011;64732;56.314;44.068;2022-12-07T07:15:37;15.70;;;7.55;;
76035;SDS011;64732;56.314;44.068;2022-12-07T07:17:59;17.05;;;7.40;;
76035;SDS011;64732;56.314;44.068;2022-12-07T07:20:20;19.58;;;6.80;;
76035;SDS011;64732;56.314;44.068;2022-12-07T07:22:41;15.52;;;6.30;;
76035;SDS011;64732;56.314;44.068;2022-12-07T07:25:02;15.98;;;7.20;;
76035;SDS011;64732;56.314;44.068;2022-12-07T07:27:24;11.88;;;4.85;;
76035;SDS011;64732;56.314;44.068;2022-12-07T07:29:48;14.63;;;6.60;;
76035;SDS011;64732;56.314;44.068;2022-12-07T07:32:09;14.18;;;6.50;;
76035;SDS011;64732;56.314;44.068;2022-12-07T07:34:30;16.73;;;5.90;;
76035;SDS011;64732;56.314;44.068;2022-12-07T07:36:51;17.05;;;6.00;;
76035;SDS011;64732;56.314;44.068;2022-12-07T07:39:12;19.98;;;9.35;;
76035;SDS011;64732;56.314;44.068;2022-12-07T07:41:33;12.75;;;5.88;;
76035;SDS011;64732;56.314;44.068;2022-12-07T07:43:54;21.05;;;7.47;;
76035;SDS011;64732;56.314;44.068;2022-12-07T07:46:18;19.70;;;8.50;;
76035;SDS011;64732;56.314;44.068;2022-12-07T07:48:39;16.90;;;7.45;;
76035;SDS011;64732;56.314;44.068;2022-12-07T07:51:00;20.15;;;7.20;;
76035;SDS011;64732;56.314;44.068;2022-12-07T07:53:21;22.25;;;8.35;;
76035;SDS011;64732;56.314;44.068;2022-12-07T07:55:42;21.67;;;9.15;;
76035;SDS011;64732;56.314;44.068;2022-12-07T07:58:11;14.88;;;6.25;;
76035;SDS011;64732;56.314;44.068;2022-12-07T08:00:32;20.13;;;8.75;;
76035;SDS011;64732;56.314;44.068;2022-12-07T08:02:55;23.58;;;8.45;;
76035;SDS011;64732;56.314;44.068;2022-12-07T08:05:17;25.65;;;9.70;;
76035;SDS011;64732;56.314;44.068;2022-12-07T08:07:38;21.10;;;8.70;;
76035;SDS011;64732;56.314;44.068;2022-12-07T08:09:58;20.80;;;8.35;;
76035;SDS011;64732;56.314;44.068;2022-12-07T08:12:19;17.00;;;7.82;;
76035;SDS011;64732;56.314;44.068;2022-12-07T08:14:40;25.10;;;9.10;;
76035;SDS011;64732;56.314;44.068;2022-12-07T08:17:04;23.20;;;9.30;;
76035;SDS011;64732;56.314;44.068;2022-12-07T08:19:28;29.35;;;12.43;;
76035;SDS011;64732;56.314;44.068;2022-12-07T08:21:49;22.38;;;9.05;;
76035;SDS011;64732;56.314;44.068;2022-12-07T08:24:10;25.63;;;7.38;;
76035;SDS011;64732;56.314;44.068;2022-12-07T08:26:31;23.77;;;9.32;;
76035;SDS011;64732;56.314;44.068;2022-12-07T08:28:52;26.17;;;10.43;;
76035;SDS011;64732;56.314;44.068;2022-12-07T08:31:17;23.50;;;9.23;;
76035;SDS011;64732;56.314;44.068;2022-12-07T08:33:38;26.17;;;10.10;;
76035;SDS011;64732;56.314;44.068;2022-12-07T08:36:03;24.90;;;9.55;;
76035;SDS011;64732;56.314;44.068;2022-12-07T08:38:25;24.10;;;9.80;;
76035;SDS011;64732;56.314;44.068;2022-12-07T08:40:52;27.13;;;10.05;;
76035;SDS011;64732;56.314;44.068;2022-12-07T08:43:14;37.92;;;10.57;;
76035;SDS011;64732;56.314;44.068;2022-12-07T08:45:35;21.05;;;8.23;;
76035;SDS011;64732;56.314;44.068;2022-12-07T08:47:57;25.25;;;9.00;;
76035;SDS011;64732;56.314;44.068;2022-12-07T08:50:22;25.63;;;9.18;;
76035;SDS011;64732;56.314;44.068;2022-12-07T08:52:46;21.95;;;8.18;;
76035;SDS011;64732;56.314;44.068;2022-12-07T08:55:09;20.52;;;7.13;;
76035;SDS011;64732;56.314;44.068;2022-12-07T08:57:31;22.02;;;8.45;;
76035;SDS011;64732;56.314;44.068;2022-12-07T08:59:53;22.98;;;8.63;;
76035;SDS011;64732;56.314;44.068;2022-12-07T09:02:14;19.77;;;8.00;;
76035;SDS011;64732;56.314;44.068;2022-12-07T09:04:35;27.17;;;8.40;;
76035;SDS011;64732;56.314;44.068;2022-12-07T09:06:57;20.10;;;6.80;;
76035;SDS011;64732;56.314;44.068;2022-12-07T09:09:20;23.33;;;7.75;;
76035;SDS011;64732;56.314;44.068;2022-12-07T09:11:42;19.52;;;7.68;;
76035;SDS011;64732;56.314;44.068;2022-12-07T09:14:03;22.00;;;7.93;;
76035;SDS011;64732;56.314;44.068;2022-12-07T09:16:24;20.23;;;7.22;;
76035;SDS011;64732;56.314;44.068;2022-12-07T09:18:45;20.13;;;7.47;;
76035;SDS011;64732;56.314;44.068;2022-12-07T09:21:06;20.48;;;7.60;;
76035;SDS011;64732;56.314;44.068;2022-12-07T09:23:27;18.05;;;6.28;;
76035;SDS011;64732;56.314;44.068;2022-12-07T09:25:51;19.67;;;6.88;;
76035;SDS011;64732;56.314;44.068;2022-12-07T09:28:12;19.52;;;7.85;;
76035;SDS011;64732;56.314;44.068;2022-12-07T09:30:33;19.25;;;7.13;;
76035;SDS011;64732;56.314;44.068;2022-12-07T09:32:55;18.58;;;6.55;;
76035;SDS011;64732;56.314;44.068;2022-12-07T09:35:17;19.88;;;7.22;;
76035;SDS011;64732;56.314;44.068;2022-12-07T09:37:38;18.85;;;8.20;;
76035;SDS011;64732;56.314;44.068;2022-12-07T09:39:59;24.30;;;9.15;;
76035;SDS011;64732;56.314;44.068;2022-12-07T09:42:27;16.95;;;6.25;;
76035;SDS011;64732;56.314;44.068;2022-12-07T09:44:50;23.30;;;6.95;;
76035;SDS011;64732;56.314;44.068;2022-12-07T09:47:11;22.23;;;8.48;;
76035;SDS011;64732;56.314;44.068;2022-12-07T09:49:32;24.13;;;8.48;;
76035;SDS011;64732;56.314;44.068;2022-12-07T09:52:00;18.65;;;6.97;;
76035;SDS011;64732;56.314;44.068;2022-12-07T09:54:22;18.50;;;7.28;;
76035;SDS011;64732;56.314;44.068;2022-12-07T09:56:43;17.55;;;7.32;;
76035;SDS011;64732;56.314;44.068;2022-12-07T09:59:09;30.08;;;9.25;;
76035;SDS011;64732;56.314;44.068;2022-12-07T10:01:46;20.35;;;8.30;;
76035;SDS011;64732;56.314;44.068;2022-12-07T10:04:09;15.43;;;5.38;;
76035;SDS011;64732;56.314;44.068;2022-12-07T10:06:32;19.95;;;8.23;;
76035;SDS011;64732;56.314;44.068;2022-12-07T10:08:53;19.98;;;8.27;;
76035;SDS011;64732;56.314;44.068;2022-12-07T10:11:14;18.65;;;7.75;;
76035;SDS011;64732;56.314;44.068;2022-12-07T10:13:35;19.92;;;7.85;;
76035;SDS011;64732;56.314;44.068;2022-12-07T10:15:58;16.65;;;7.78;;
76035;SDS011;64732;56.314;44.068;2022-12-07T10:18:26;22.88;;;8.55;;
76035;SDS011;64732;56.314;44.068;2022-12-07T10:20:49;23.48;;;8.35;;
76035;SDS011;64732;56.314;44.068;2022-12-07T10:23:13;19.80;;;8.25;;
76035;SDS011;64732;56.314;44.068;2022-12-07T10:25:36;24.83;;;9.57;;
76035;SDS011;64732;56.314;44.068;2022-12-07T10:27:57;18.70;;;8.55;;
76035;SDS011;64732;56.314;44.068;2022-12-07T10:30:23;19.35;;;7.88;;
76035;SDS011;64732;56.314;44.068;2022-12-07T10:32:44;22.45;;;9.85;;
76035;SDS011;64732;56.314;44.068;2022-12-07T10:35:24;17.52;;;8.07;;
76035;SDS011;64732;56.314;44.068;2022-12-07T10:37:47;17.13;;;7.38;;
76035;SDS011;64732;56.314;44.068;2022-12-07T10:40:23;18.00;;;6.97;;
76035;SDS011;64732;56.314;44.068;2022-12-07T10:42:49;18.63;;;7.47;;
76035;SDS011;64732;56.314;44.068;2022-12-07T10:45:24;16.65;;;7.95;;
76035;SDS011;64732;56.314;44.068;2022-12-07T10:47:45;15.15;;;6.32;;
76035;SDS011;64732;56.314;44.068;2022-12-07T10:55:55;15.45;;;6.88;;
76035;SDS011;64732;56.314;44.068;2022-12-07T11:01:08;18.45;;;7.45;;
76035;SDS011;64732;56.314;44.068;2022-12-07T11:03:37;18.42;;;7.78;;
76035;SDS011;64732;56.314;44.068;2022-12-07T11:06:21;18.38;;;7.95;;
76035;SDS011;64732;56.314;44.068;2022-12-07T11:08:51;17.23;;;7.18;;
76035;SDS011;64732;56.314;44.068;2022-12-07T11:11:37;20.03;;;8.90;;
76035;SDS011;64732;56.314;44.068;2022-12-07T11:14:03;19.33;;;7.40;;
76035;SDS011;64732;56.314;44.068;2022-12-07T11:16:32;26.40;;;8.60;;
76035;SDS011;64732;56.314;44.068;2022-12-07T11:19:15;23.33;;;7.93;;
76035;SDS011;64732;56.314;44.068;2022-12-07T11:21:56;25.38;;;8.82;;
76035;SDS011;64732;56.314;44.068;2022-12-07T11:24:19;28.35;;;9.18;;
76035;SDS011;64732;56.314;44.068;2022-12-07T11:26:58;19.63;;;8.40;;
76035;SDS011;64732;56.314;44.068;2022-12-07T11:29:30;20.55;;;7.45;;
76035;SDS011;64732;56.314;44.068;2022-12-07T11:32:02;22.35;;;8.25;;
76035;SDS011;64732;56.314;44.068;2022-12-07T11:34:30;19.67;;;7.50;;
76035;SDS011;64732;56.314;44.068;2022-12-07T11:37:01;23.13;;;9.10;;
76035;SDS011;64732;56.314;44.068;2022-12-07T11:39:24;22.75;;;9.20;;
76035;SDS011;64732;56.314;44.068;2022-12-07T11:41:47;28.08;;;9.90;;
76035;SDS011;64732;56.314;44.068;2022-12-07T11:44:13;27.30;;;10.23;;
76035;SDS011;64732;56.314;44.068;2022-12-07T11:46:44;20.52;;;8.73;;
76035;SDS011;64732;56.314;44.068;2022-12-07T11:49:08;20.75;;;8.30;;
76035;SDS011;64732;56.314;44.068;2022-12-07T11:51:33;20.60;;;8.70;;
76035;SDS011;64732;56.314;44.068;2022-12-07T11:53:59;20.88;;;9.43;;
76035;SDS011;64732;56.314;44.068;2022-12-07T11:56:24;19.13;;;8.23;;
76035;SDS011;64732;56.314;44.068;2022-12-07T11:58:49;23.00;;;9.35;;
76035;SDS011;64732;56.314;44.068;2022-12-07T12:01:13;23.20;;;8.18;;
76035;SDS011;64732;56.314;44.068;2022-12-07T12:03:38;20.45;;;9.60;;
76035;SDS011;64732;56.314;44.068;2022-12-07T12:06:01;23.08;;;7.72;;
76035;SDS011;64732;56.314;44.068;2022-12-07T12:08:23;17.90;;;7.70;;
76035;SDS011;64732;56.314;44.068;2022-12-07T12:10:55;24.90;;;8.55;;
76035;SDS011;64732;56.314;44.068;2022-12-07T12:16:27;25.48;;;10.43;;
76035;SDS011;64732;56.314;44.068;2022-12-07T12:19:03;21.25;;;8.98;;
76035;SDS011;64732;56.314;44.068;2022-12-07T12:21:34;20.95;;;8.48;;
76035;SDS011;64732;56.314;44.068;2022-12-07T12:23:55;24.10;;;9.48;;
76035;SDS011;64732;56.314;44.068;2022-12-07T12:26:21;21.80;;;8.07;;
76035;SDS011;64732;56.314;44.068;2022-12-07T12:28:49;24.05;;;9.02;;
76035;SDS011;64732;56.314;44.068;2022-12-07T12:31:13;24.23;;;9.80;;
76035;SDS011;64732;56.314;44.068;2022-12-07T12:33:36;17.05;;;7.75;;
76035;SDS011;64732;56.314;44.068;2022-12-07T12:38:49;18.77;;;7.65;;
76035;SDS011;64732;56.314;44.068;2022-12-07T12:41:11;22.15;;;6.80;;
76035;SDS011;64732;56.314;44.068;2022-12-07T12:44:15;17.63;;;7.15;;
76035;SDS011;64732;56.314;44.068;2022-12-07T12:47:02;18.40;;;6.35;;
76035;SDS011;64732;56.314;44.068;2022-12-07T12:55:12;18.50;;;7.63;;
76035;SDS011;64732;56.314;44.068;2022-12-07T12:57:35;24.17;;;8.88;;
76035;SDS011;64732;56.314;44.068;2022-12-07T12:59:59;26.75;;;9.75;;
76035;SDS011;64732;56.314;44.068;2022-12-07T13:02:21;19.13;;;7.63;;
76035;SDS011;64732;56.314;44.068;2022-12-07T13:07:13;30.50;;;13.00;;
76035;SDS011;64732;56.314;44.068;2022-12-07T13:10:18;29.10;;;10.18;;
76035;SDS011;64732;56.314;44.068;2022-12-07T13:12:42;25.42;;;10.75;;
76035;SDS011;64732;56.314;44.068;2022-12-07T13:15:19;32.88;;;9.98;;
76035;SDS011;64732;56.314;44.068;2022-12-07T13:17:56;16.73;;;6.78;;
76035;SDS011;64732;56.314;44.068;2022-12-07T13:23:06;27.23;;;12.07;;
76035;SDS011;64732;56.314;44.068;2022-12-07T13:25:33;23.52;;;10.35;;
76035;SDS011;64732;56.314;44.068;2022-12-07T13:28:01;26.38;;;8.77;;
76035;SDS011;64732;56.314;44.068;2022-12-07T13:30:25;29.48;;;10.95;;
76035;SDS011;64732;56.314;44.068;2022-12-07T13:32:51;26.17;;;9.68;;
76035;SDS011;64732;56.314;44.068;2022-12-07T13:35:31;27.17;;;11.52;;
76035;SDS011;64732;56.314;44.068;2022-12-07T13:37:53;30.15;;;12.02;;
76035;SDS011;64732;56.314;44.068;2022-12-07T13:40:17;39.35;;;13.30;;
76035;SDS011;64732;56.314;44.068;2022-12-07T13:42:39;36.55;;;13.52;;
76035;SDS011;64732;56.314;44.068;2022-12-07T13:45:01;36.25;;;13.60;;
76035;SDS011;64732;56.314;44.068;2022-12-07T13:47:43;31.23;;;11.43;;
76035;SDS011;64732;56.314;44.068;2022-12-07T13:50:21;23.67;;;9.60;;
76035;SDS011;64732;56.314;44.068;2022-12-07T13:52:43;27.10;;;11.25;;
76035;SDS011;64732;56.314;44.068;2022-12-07T13:55:08;21.85;;;10.70;;
76035;SDS011;64732;56.314;44.068;2022-12-07T13:59:55;25.75;;;10.40;;
76035;SDS011;64732;56.314;44.068;2022-12-07T14:02:19;21.02;;;8.65;;
76035;SDS011;64732;56.314;44.068;2022-12-07T14:04:43;16.75;;;7.05;;
76035;SDS011;64732;56.314;44.068;2022-12-07T14:07:20;25.42;;;10.65;;
76035;SDS011;64732;56.314;44.068;2022-12-07T14:09:52;21.27;;;9.65;;
76035;SDS011;64732;56.314;44.068;2022-12-07T14:12:14;24.85;;;9.95;;
76035;SDS011;64732;56.314;44.068;2022-12-07T14:14:35;17.38;;;7.65;;
76035;SDS011;64732;56.314;44.068;2022-12-07T14:16:57;24.60;;;9.00;;
76035;SDS011;64732;56.314;44.068;2022-12-07T14:22:20;19.38;;;7.97;;
76035;SDS011;64732;56.314;44.068;2022-12-07T14:24:43;32.20;;;11.93;;
76035;SDS011;64732;56.314;44.068;2022-12-07T14:27:04;26.77;;;11.15;;
76035;SDS011;64732;56.314;44.068;2022-12-07T14:29:37;26.25;;;10.48;;
76035;SDS011;64732;56.314;44.068;2022-12-07T14:32:01;26.10;;;9.43;;
76035;SDS011;64732;56.314;44.068;2022-12-07T14:34:41;28.60;;;11.48;;